createdAt,value
2017-08-02T00:02:19.229Z,19.70
2017-08-02T00:04:46.728Z,19.60
2017-08-02T00:07:14.969Z,19.50
2017-08-02T00:09:42.445Z,19.50
2017-08-02T00:12:10.029Z,19.50
2017-08-02T00:14:39.294Z,19.50
2017-08-02T00:17:06.773Z,19.50
2017-08-02T00:19:35.033Z,19.50
2017-08-02T00:22:02.506Z,19.50
2017-08-02T00:24:30.974Z,19.40
2017-08-02T00:26:58.469Z,19.40
2017-08-02T00:29:25.942Z,19.40
2017-08-02T00:31:53.422Z,19.40
2017-08-02T00:34:20.913Z,19.40
2017-08-02T00:36:48.393Z,19.40
2017-08-02T00:39:15.865Z,19.50
2017-08-02T00:41:43.369Z,19.50
2017-08-02T00:44:10.840Z,19.40
2017-08-02T00:46:38.317Z,19.40
2017-08-02T00:49:06.592Z,19.40
2017-08-02T00:51:34.832Z,19.30
2017-08-02T00:54:02.306Z,19.30
2017-08-02T00:56:30.877Z,19.30
2017-08-02T00:58:58.379Z,19.30
2017-08-02T01:01:25.901Z,19.30
2017-08-02T01:03:53.409Z,19.40
2017-08-02T01:06:21.177Z,19.40
2017-08-02T01:08:48.658Z,19.40
2017-08-02T01:11:16.198Z,19.30
2017-08-02T01:13:43.758Z,19.30
2017-08-02T01:16:11.233Z,19.30
2017-08-02T01:18:38.761Z,19.20
2017-08-02T01:21:06.241Z,19.20
2017-08-02T01:23:33.717Z,19.30
2017-08-02T01:26:01.208Z,19.20
2017-08-02T01:28:28.681Z,19.20
2017-08-02T01:30:56.153Z,19.30
2017-08-02T01:33:23.653Z,19.30
2017-08-02T01:35:51.144Z,19.30
2017-08-02T01:38:18.645Z,19.30
2017-08-02T01:40:46.157Z,19.30
2017-08-02T01:43:13.638Z,19.30
2017-08-02T01:45:41.113Z,19.30
2017-08-02T01:48:08.609Z,19.30
2017-08-02T01:50:36.855Z,19.30
2017-08-02T01:53:04.337Z,19.30
2017-08-02T01:55:32.605Z,19.30
2017-08-02T01:58:00.079Z,19.20
2017-08-02T02:00:28.322Z,19.20
2017-08-02T02:02:55.821Z,19.20
2017-08-02T02:05:23.294Z,19.20
2017-08-02T02:07:50.775Z,19.20
2017-08-02T02:10:18.311Z,19.20
2017-08-02T02:12:45.822Z,19.10
2017-08-02T02:15:13.301Z,19.00
2017-08-02T02:17:41.562Z,19.00
2017-08-02T02:20:09.037Z,19.00
2017-08-02T02:22:36.518Z,19.10
2017-08-02T02:25:04.009Z,19.20
2017-08-02T02:27:31.520Z,19.20
2017-08-02T02:29:58.985Z,19.30
2017-08-02T02:32:26.485Z,19.40
2017-08-02T02:34:53.961Z,19.40
2017-08-02T02:37:22.230Z,19.40
2017-08-02T02:39:49.724Z,19.40
2017-08-02T02:42:17.201Z,19.40
2017-08-02T02:44:44.721Z,19.40
2017-08-02T02:47:12.985Z,19.40
2017-08-02T02:49:41.233Z,19.40
2017-08-02T02:52:08.708Z,19.40
2017-08-02T02:54:36.201Z,19.40
2017-08-02T02:57:04.030Z,19.40
2017-08-02T02:59:31.506Z,19.40
2017-08-02T03:01:59.769Z,19.40
2017-08-02T03:04:27.249Z,19.40
2017-08-02T03:06:55.494Z,19.30
2017-08-02T03:09:22.989Z,19.30
2017-08-02T03:11:50.465Z,19.30
2017-08-02T03:14:17.941Z,19.30
2017-08-02T03:16:45.513Z,19.30
2017-08-02T03:19:12.993Z,19.30
2017-08-02T03:21:40.468Z,19.30
2017-08-02T03:24:08.728Z,19.30
2017-08-02T03:26:36.969Z,19.30
2017-08-02T03:29:04.449Z,19.30
2017-08-02T03:31:31.946Z,19.30
2017-08-02T03:33:59.425Z,19.20
2017-08-02T03:36:26.897Z,19.20
2017-08-02T03:38:54.405Z,19.10
2017-08-02T03:41:22.645Z,19.00
2017-08-02T03:43:50.118Z,18.90
2017-08-02T03:46:17.613Z,18.90
2017-08-02T03:48:45.089Z,18.90
2017-08-02T03:51:12.565Z,18.80
2017-08-02T03:53:40.065Z,18.80
2017-08-02T03:56:08.305Z,18.80
2017-08-02T03:58:35.777Z,18.70
2017-08-02T04:01:03.273Z,18.70
2017-08-02T04:03:30.757Z,18.80
2017-08-02T04:05:58.233Z,18.80
2017-08-02T04:08:25.748Z,18.70
2017-08-02T04:10:53.236Z,18.70
2017-08-02T04:13:20.714Z,18.60
2017-08-02T04:15:48.210Z,18.60
2017-08-02T04:18:15.692Z,18.70
2017-08-02T04:20:43.281Z,18.70
2017-08-02T04:23:10.792Z,18.70
2017-08-02T04:25:38.582Z,18.80
2017-08-02T04:28:06.339Z,18.80
2017-08-02T04:30:33.926Z,18.90
2017-08-02T04:33:01.401Z,18.90
2017-08-02T04:35:29.641Z,18.70
2017-08-02T04:37:57.141Z,18.70
2017-08-02T04:40:25.389Z,18.70
2017-08-02T04:42:52.871Z,18.70
2017-08-02T04:45:21.148Z,18.70
2017-08-02T04:47:49.393Z,18.70
2017-08-02T04:50:16.866Z,18.70
2017-08-02T04:52:44.357Z,18.70
2017-08-02T04:55:11.843Z,18.70
2017-08-02T04:57:39.326Z,18.70
2017-08-02T05:00:06.822Z,18.70
2017-08-02T05:02:34.297Z,18.60
2017-08-02T05:05:01.774Z,18.60
2017-08-02T05:07:29.265Z,18.60
2017-08-02T05:09:56.757Z,18.70
2017-08-02T05:12:24.234Z,18.80
2017-08-02T05:14:51.742Z,19.20
2017-08-02T05:17:19.461Z,19.40
2017-08-02T05:19:46.941Z,19.40
2017-08-02T05:22:14.441Z,19.50
2017-08-02T05:24:41.917Z,19.50
2017-08-02T05:27:09.394Z,19.60
2017-08-02T05:29:36.892Z,19.70
2017-08-02T05:32:04.369Z,19.80
2017-08-02T05:34:32.609Z,20.00
2017-08-02T05:37:00.105Z,20.00
2017-08-02T05:39:27.584Z,20.00
2017-08-02T05:41:55.060Z,19.90
2017-08-02T05:44:22.556Z,20.10
2017-08-02T05:46:50.801Z,20.70
2017-08-02T05:49:18.273Z,20.70
2017-08-02T05:51:45.774Z,20.70
2017-08-02T05:54:13.265Z,21.00
2017-08-02T05:56:40.741Z,21.10
2017-08-02T05:59:08.473Z,21.10
2017-08-02T06:01:35.941Z,21.40
2017-08-02T06:04:03.442Z,21.70
2017-08-02T06:06:31.743Z,21.90
2017-08-02T06:08:59.258Z,21.90
2017-08-02T06:11:26.739Z,21.90
2017-08-02T06:13:55.018Z,22.20
2017-08-02T06:16:23.284Z,22.50
2017-08-02T06:18:51.525Z,22.30
2017-08-02T06:21:19.016Z,22.30
2017-08-02T06:23:47.253Z,23.10
2017-08-02T06:26:14.758Z,23.10
2017-08-02T06:28:43.058Z,22.90
2017-08-02T06:31:10.566Z,22.80
2017-08-02T06:33:38.079Z,22.70
2017-08-02T06:36:05.614Z,22.60
2017-08-02T06:38:33.088Z,22.60
2017-08-02T06:41:00.556Z,22.40
2017-08-02T06:43:28.049Z,22.30
2017-08-02T06:45:55.517Z,22.30
2017-08-02T06:48:22.997Z,22.40
2017-08-02T06:50:50.496Z,22.40
2017-08-02T06:53:17.966Z,22.80
2017-08-02T06:55:46.482Z,23.10
2017-08-02T06:58:13.974Z,23.50
2017-08-02T07:00:41.448Z,24.10
2017-08-02T07:03:08.912Z,24.50
2017-08-02T07:05:36.405Z,24.70
2017-08-02T07:08:03.881Z,24.90
2017-08-02T07:10:31.354Z,25.20
2017-08-02T07:12:58.858Z,25.50
2017-08-02T07:15:26.335Z,25.60
2017-08-02T07:17:54.576Z,26.00
2017-08-02T07:20:22.429Z,26.00
2017-08-02T07:22:49.933Z,26.00
2017-08-02T07:25:17.438Z,26.10
2017-08-02T07:27:44.937Z,26.40
2017-08-02T07:30:12.405Z,26.60
2017-08-02T07:32:39.877Z,26.60
2017-08-02T07:35:08.136Z,27.30
2017-08-02T07:37:35.609Z,27.30
2017-08-02T07:40:03.085Z,27.10
2017-08-02T07:42:30.581Z,27.00
2017-08-02T07:44:58.051Z,27.30
2017-08-02T07:47:25.532Z,27.30
2017-08-02T07:49:53.050Z,27.30
2017-08-02T07:52:20.521Z,27.30
2017-08-02T07:54:47.996Z,27.10
2017-08-02T07:57:16.521Z,26.90
2017-08-02T07:59:43.997Z,26.90
2017-08-02T08:02:11.469Z,26.90
2017-08-02T08:04:38.964Z,27.00
2017-08-02T08:07:06.438Z,26.80
2017-08-02T08:09:34.213Z,26.60
2017-08-02T08:12:01.700Z,26.50
2017-08-02T08:14:29.173Z,26.30
2017-08-02T08:16:56.643Z,26.00
2017-08-02T08:19:24.137Z,26.10
2017-08-02T08:21:51.605Z,26.30
2017-08-02T08:24:19.076Z,26.70
2017-08-02T08:26:46.569Z,26.80
2017-08-02T08:29:14.053Z,26.80
2017-08-02T08:31:41.533Z,26.70
2017-08-02T08:34:09.025Z,26.40
2017-08-02T08:36:36.493Z,26.10
2017-08-02T08:39:04.730Z,26.60
2017-08-02T08:41:32.221Z,26.50
2017-08-02T08:43:59.693Z,26.70
2017-08-02T08:46:27.214Z,27.00
2017-08-02T08:48:54.696Z,27.00
2017-08-02T08:51:22.933Z,27.30
2017-08-02T08:53:50.404Z,27.20
2017-08-02T08:56:17.893Z,27.20
2017-08-02T08:58:46.129Z,27.00
2017-08-02T09:01:13.601Z,27.00
2017-08-02T09:03:41.105Z,27.20
2017-08-02T09:06:08.578Z,27.40
2017-08-02T09:08:36.045Z,27.70
2017-08-02T09:11:03.537Z,28.40
2017-08-02T09:13:31.010Z,29.00
2017-08-02T09:15:59.245Z,29.60
2017-08-02T09:18:26.741Z,29.50
2017-08-02T09:20:55.269Z,30.00
2017-08-02T09:23:22.741Z,30.00
2017-08-02T09:25:50.274Z,29.50
2017-08-02T09:28:17.745Z,29.40
2017-08-02T09:30:45.217Z,29.80
2017-08-02T09:33:12.709Z,29.60
2017-08-02T09:35:40.948Z,29.20
2017-08-02T09:38:08.445Z,29.20
2017-08-02T09:40:36.965Z,29.50
2017-08-02T09:43:04.438Z,29.50
2017-08-02T09:45:31.913Z,30.10
2017-08-02T09:47:59.405Z,30.10
2017-08-02T09:50:26.884Z,30.10
2017-08-02T09:52:54.357Z,29.80
2017-08-02T09:55:21.850Z,29.60
2017-08-02T09:57:49.326Z,29.70
2017-08-02T10:00:17.577Z,29.80
2017-08-02T10:02:45.073Z,29.80
2017-08-02T10:05:12.546Z,29.50
2017-08-02T10:07:40.017Z,29.60
2017-08-02T10:10:07.513Z,29.80
2017-08-02T10:12:34.997Z,30.10
2017-08-02T10:15:02.469Z,30.30
2017-08-02T10:17:29.963Z,30.20
2017-08-02T10:19:57.448Z,30.10
2017-08-02T10:22:25.688Z,29.80
2017-08-02T10:24:53.181Z,29.80
2017-08-02T10:27:21.417Z,29.30
2017-08-02T10:29:48.888Z,29.30
2017-08-02T10:32:16.381Z,29.50
2017-08-02T10:34:44.617Z,29.90
2017-08-02T10:37:12.085Z,29.90
2017-08-02T10:39:39.577Z,30.30
2017-08-02T10:42:07.053Z,30.50
2017-08-02T10:44:34.529Z,30.50
2017-08-02T10:47:02.021Z,29.90
2017-08-02T10:49:29.494Z,30.10
2017-08-02T10:51:57.736Z,30.60
2017-08-02T10:54:25.229Z,30.60
2017-08-02T10:56:52.701Z,30.80
2017-08-02T10:59:20.174Z,31.10
2017-08-02T11:01:47.665Z,31.60
2017-08-02T11:04:15.156Z,31.90
2017-08-02T11:06:42.632Z,32.20
2017-08-02T11:09:10.417Z,32.50
2017-08-02T11:11:37.886Z,32.80
2017-08-02T11:14:05.365Z,33.20
2017-08-02T11:16:32.872Z,32.50
2017-08-02T11:19:00.348Z,32.60
2017-08-02T11:21:27.818Z,32.60
2017-08-02T11:23:55.309Z,32.10
2017-08-02T11:26:23.552Z,31.90
2017-08-02T11:28:51.025Z,31.90
2017-08-02T11:31:18.517Z,32.00
2017-08-02T11:33:46.009Z,32.20
2017-08-02T11:36:13.481Z,32.80
2017-08-02T11:38:40.978Z,33.50
2017-08-02T11:41:09.217Z,33.20
2017-08-02T11:43:36.685Z,33.20
2017-08-02T11:46:04.221Z,33.00
2017-08-02T11:48:31.692Z,33.70
2017-08-02T11:50:59.161Z,34.20
2017-08-02T11:53:26.653Z,33.70
2017-08-02T11:55:54.124Z,33.70
2017-08-02T11:58:21.598Z,34.30
2017-08-02T12:00:49.089Z,34.60
2017-08-02T12:03:16.561Z,34.50
2017-08-02T12:05:44.801Z,33.30
2017-08-02T12:08:12.295Z,33.30
2017-08-02T12:10:39.776Z,32.20
2017-08-02T12:13:07.560Z,30.70
2017-08-02T12:15:35.053Z,29.90
2017-08-02T12:18:02.525Z,29.80
2017-08-02T12:20:30.764Z,30.30
2017-08-02T12:22:58.258Z,30.30
2017-08-02T12:25:26.498Z,30.50
2017-08-02T12:27:53.973Z,30.50
2017-08-02T12:30:21.469Z,31.20
2017-08-02T12:32:48.947Z,32.00
2017-08-02T12:35:16.416Z,32.20
2017-08-02T12:37:44.040Z,32.40
2017-08-02T12:40:11.514Z,32.90
2017-08-02T12:42:38.991Z,33.50
2017-08-02T12:45:06.486Z,33.90
2017-08-02T12:47:34.205Z,34.10
2017-08-02T12:50:01.681Z,34.40
2017-08-02T12:52:29.178Z,34.70
2017-08-02T12:54:56.649Z,34.90
2017-08-02T12:57:24.126Z,34.80
2017-08-02T12:59:51.618Z,34.80
2017-08-02T13:02:19.085Z,34.80
2017-08-02T13:04:46.809Z,35.30
2017-08-02T13:07:14.301Z,35.60
2017-08-02T13:09:41.805Z,35.40
2017-08-02T13:12:09.274Z,35.10
2017-08-02T13:14:37.617Z,34.60
2017-08-02T13:17:05.089Z,34.30
2017-08-02T13:19:32.564Z,34.00
2017-08-02T13:22:00.061Z,33.70
2017-08-02T13:24:27.536Z,33.20
2017-08-02T13:26:55.777Z,32.70
2017-08-02T13:29:23.265Z,32.70
2017-08-02T13:31:50.732Z,32.30
2017-08-02T13:34:18.969Z,31.80
2017-08-02T13:36:46.870Z,31.70
2017-08-02T13:39:15.109Z,32.00
2017-08-02T13:41:42.577Z,31.90
2017-08-02T13:44:10.069Z,31.90
2017-08-02T13:46:38.304Z,31.30
2017-08-02T13:49:05.777Z,31.30
2017-08-02T13:51:33.273Z,31.40
2017-08-02T13:54:00.744Z,31.30
2017-08-02T13:56:28.217Z,31.00
2017-08-02T13:58:55.708Z,30.80
2017-08-02T14:01:23.181Z,30.90
2017-08-02T14:03:50.652Z,30.70
2017-08-02T14:06:18.497Z,30.60
2017-08-02T14:08:46.737Z,30.10
2017-08-02T14:11:14.212Z,30.10
2017-08-02T14:13:41.704Z,29.90
2017-08-02T14:16:09.453Z,30.00
2017-08-02T14:18:37.062Z,30.20
2017-08-02T14:21:04.565Z,30.30
2017-08-02T14:23:32.806Z,30.40
2017-08-02T14:26:00.277Z,30.40
2017-08-02T14:28:27.771Z,30.40
2017-08-02T14:30:55.245Z,30.20
2017-08-02T14:33:22.816Z,29.90
2017-08-02T14:35:50.372Z,29.70
2017-08-02T14:38:17.861Z,29.70
2017-08-02T14:40:45.333Z,29.30
2017-08-02T14:43:12.833Z,29.40
2017-08-02T14:45:40.390Z,29.30
2017-08-02T14:48:07.861Z,29.30
2017-08-02T14:50:35.373Z,29.40
2017-08-02T14:53:03.613Z,29.50
2017-08-02T14:55:31.085Z,29.50
2017-08-02T14:57:58.582Z,29.50
2017-08-02T15:00:26.058Z,29.60
2017-08-02T15:02:53.545Z,29.70
2017-08-02T15:05:21.293Z,29.80
2017-08-02T15:07:48.762Z,29.90
2017-08-02T15:10:16.234Z,30.10
2017-08-02T15:12:43.748Z,30.10
2017-08-02T15:15:11.281Z,30.10
2017-08-02T15:17:40.409Z,29.70
2017-08-02T15:20:07.994Z,29.70
2017-08-02T15:22:35.510Z,29.80
2017-08-02T15:25:03.297Z,29.80
2017-08-02T15:27:30.792Z,29.80
2017-08-02T15:29:58.270Z,29.80
2017-08-02T15:32:26.508Z,29.90
2017-08-02T15:34:54.002Z,29.80
2017-08-02T15:37:22.274Z,30.00
2017-08-02T15:39:50.521Z,30.00
2017-08-02T15:42:18.019Z,30.00
2017-08-02T15:44:45.497Z,30.00
2017-08-02T15:47:12.969Z,29.90
2017-08-02T15:49:40.501Z,29.90
2017-08-02T15:52:07.970Z,29.80
2017-08-02T15:54:35.440Z,29.80
2017-08-02T15:57:02.929Z,30.00
2017-08-02T15:59:30.429Z,30.00
2017-08-02T16:01:57.901Z,30.00
2017-08-02T16:04:25.392Z,29.60
2017-08-02T16:06:52.860Z,29.70
2017-08-02T16:09:20.338Z,29.80
2017-08-02T16:11:47.855Z,29.90
2017-08-02T16:14:15.326Z,29.90
2017-08-02T16:16:42.801Z,29.90
2017-08-02T16:19:11.065Z,29.80
2017-08-02T16:21:38.532Z,29.80
2017-08-02T16:24:06.769Z,29.60
2017-08-02T16:26:34.265Z,29.60
2017-08-02T16:29:02.501Z,29.60
2017-08-02T16:31:29.970Z,29.50
2017-08-02T16:33:57.486Z,29.50
2017-08-02T16:36:24.957Z,29.30
2017-08-02T16:38:52.434Z,29.20
2017-08-02T16:41:20.177Z,29.10
2017-08-02T16:43:47.654Z,29.10
2017-08-02T16:46:15.135Z,29.10
2017-08-02T16:48:43.408Z,29.10
2017-08-02T16:51:10.977Z,29.10
2017-08-02T16:53:39.217Z,29.10
2017-08-02T16:56:06.708Z,29.10
2017-08-02T16:58:34.957Z,29.00
2017-08-02T17:01:02.432Z,29.00
2017-08-02T17:03:29.924Z,28.90
2017-08-02T17:05:59.107Z,28.70
2017-08-02T17:08:29.209Z,28.70
2017-08-02T17:10:57.642Z,28.60
2017-08-02T17:13:25.115Z,28.60
2017-08-02T17:15:52.643Z,28.50
2017-08-02T17:18:20.140Z,28.50
2017-08-02T17:20:47.608Z,28.40
2017-08-02T17:23:15.077Z,28.40
2017-08-02T17:25:42.569Z,28.30
2017-08-02T17:28:10.045Z,28.10
2017-08-02T17:30:37.517Z,27.90
2017-08-02T17:33:05.507Z,27.60
2017-08-02T17:35:33.305Z,27.50
2017-08-02T17:38:01.129Z,27.40
2017-08-02T17:40:28.693Z,27.30
2017-08-02T17:42:56.160Z,27.20
2017-08-02T17:45:23.633Z,27.20
2017-08-02T17:47:51.889Z,27.00
2017-08-02T17:50:19.362Z,27.00
2017-08-02T17:52:47.604Z,27.00
2017-08-02T17:55:15.121Z,26.90
2017-08-02T17:57:42.589Z,26.90
2017-08-02T18:00:10.062Z,26.90
2017-08-02T18:02:37.556Z,26.90
2017-08-02T18:05:05.029Z,26.80
2017-08-02T18:07:33.265Z,26.80
2017-08-02T18:10:02.266Z,26.70
2017-08-02T18:12:29.744Z,26.70
2017-08-02T18:14:58.012Z,26.50
2017-08-02T18:17:25.613Z,26.50
2017-08-02T18:19:53.105Z,26.40
2017-08-02T18:22:20.843Z,26.40
2017-08-02T18:24:48.408Z,26.30
2017-08-02T18:27:15.885Z,26.30
2017-08-02T18:29:43.369Z,26.10
2017-08-02T18:32:10.869Z,26.00
2017-08-02T18:34:38.353Z,26.00
2017-08-02T18:37:05.833Z,25.80
2017-08-02T18:39:33.329Z,25.70
2017-08-02T18:42:00.805Z,25.50
2017-08-02T18:44:28.277Z,25.20
2017-08-02T18:46:55.768Z,25.10
2017-08-02T18:49:24.013Z,24.90
2017-08-02T18:51:51.485Z,24.90
2017-08-02T18:54:18.993Z,24.90
2017-08-02T18:56:46.465Z,24.90
2017-08-02T18:59:13.941Z,25.00
2017-08-02T19:01:41.685Z,24.90
2017-08-02T19:04:09.165Z,24.90
2017-08-02T19:06:36.638Z,24.90
2017-08-02T19:09:04.142Z,24.80
2017-08-02T19:11:31.629Z,24.70
2017-08-02T19:13:59.110Z,24.70
2017-08-02T19:16:26.609Z,24.60
2017-08-02T19:18:54.086Z,24.60
2017-08-02T19:21:21.576Z,24.40
2017-08-02T19:23:49.122Z,24.30
2017-08-02T19:26:16.610Z,24.20
2017-08-02T19:28:44.100Z,24.10
2017-08-02T19:31:11.651Z,24.00
2017-08-02T19:33:39.148Z,23.90
2017-08-02T19:36:06.649Z,23.70
2017-08-02T19:38:34.149Z,23.70
2017-08-02T19:41:01.633Z,23.70
2017-08-02T19:43:29.123Z,23.50
2017-08-02T19:45:57.397Z,23.40
2017-08-02T19:48:25.642Z,23.30
2017-08-02T19:50:53.148Z,23.30
2017-08-02T19:53:20.712Z,23.30
2017-08-02T19:55:48.185Z,23.20
2017-08-02T19:58:15.665Z,23.20
2017-08-02T20:00:43.166Z,23.20
2017-08-02T20:03:10.642Z,23.10
2017-08-02T20:05:38.124Z,23.10
2017-08-02T20:08:05.633Z,23.10
2017-08-02T20:10:33.881Z,22.90
2017-08-02T20:13:01.364Z,22.90
2017-08-02T20:15:29.702Z,22.80
2017-08-02T20:17:57.440Z,22.80
2017-08-02T20:20:25.322Z,22.80
2017-08-02T20:22:53.633Z,22.80
2017-08-02T20:25:21.877Z,22.70
2017-08-02T20:27:49.360Z,22.70
2017-08-02T20:30:16.924Z,22.60
2017-08-02T20:32:44.406Z,22.60
2017-08-02T20:35:11.885Z,22.60
2017-08-02T20:37:39.381Z,22.60
2017-08-02T20:40:06.861Z,22.50
2017-08-02T20:42:34.349Z,22.40
2017-08-02T20:45:01.853Z,22.40
2017-08-02T20:47:29.334Z,22.30
2017-08-02T20:49:57.861Z,22.10
2017-08-02T20:52:25.370Z,22.10
2017-08-02T20:54:53.612Z,22.00
2017-08-02T20:57:21.094Z,21.90
2017-08-02T20:59:48.594Z,21.90
2017-08-02T21:02:16.085Z,21.80
2017-08-02T21:04:43.561Z,21.80
2017-08-02T21:07:11.083Z,21.70
2017-08-02T21:09:38.562Z,21.70
2017-08-02T21:12:06.042Z,21.70
2017-08-02T21:14:34.673Z,21.70
2017-08-02T21:17:02.148Z,21.70
2017-08-02T21:19:29.621Z,21.70
2017-08-02T21:21:57.121Z,21.80
2017-08-02T21:24:32.639Z,21.80
2017-08-02T21:27:07.832Z,21.50
2017-08-02T21:29:44.554Z,21.40
2017-08-02T21:32:22.500Z,21.40
2017-08-02T21:34:59.634Z,21.40
2017-08-02T21:37:35.525Z,21.50
2017-08-02T21:40:03.321Z,21.50
2017-08-02T21:42:30.793Z,21.50
2017-08-02T21:44:58.289Z,21.50
2017-08-02T21:47:25.778Z,21.30
2017-08-02T21:49:53.263Z,21.30
2017-08-02T21:52:20.772Z,21.30
2017-08-02T21:54:48.250Z,21.30
2017-08-02T21:57:15.723Z,21.30
2017-08-02T21:59:43.234Z,21.20
2017-08-02T22:02:10.709Z,21.20
2017-08-02T22:04:38.262Z,21.20
2017-08-02T22:07:05.768Z,21.30
2017-08-02T22:09:33.253Z,21.30
2017-08-02T22:12:00.729Z,21.30
2017-08-02T22:14:28.228Z,21.30
2017-08-02T22:16:55.701Z,21.30
2017-08-02T22:19:23.181Z,21.20
2017-08-02T22:21:51.448Z,21.00
2017-08-02T22:24:18.941Z,21.00
2017-08-02T22:26:46.421Z,20.90
2017-08-02T22:29:13.920Z,20.80
2017-08-02T22:31:42.165Z,20.70
2017-08-02T22:34:09.641Z,20.70
2017-08-02T22:36:37.137Z,20.70
2017-08-02T22:39:04.629Z,20.70
2017-08-02T22:41:32.110Z,20.70
2017-08-02T22:43:59.610Z,20.60
2017-08-02T22:46:27.098Z,20.60
2017-08-02T22:48:54.573Z,20.60
2017-08-02T22:51:22.073Z,20.60
2017-08-02T22:53:49.549Z,20.60
2017-08-02T22:56:17.029Z,20.60
2017-08-02T22:58:44.529Z,20.60
2017-08-02T23:01:13.056Z,20.60
2017-08-02T23:03:40.536Z,20.60
2017-08-02T23:06:08.430Z,20.60
2017-08-02T23:08:36.677Z,20.70
2017-08-02T23:11:04.153Z,20.60
2017-08-02T23:13:31.650Z,20.60
2017-08-02T23:15:59.125Z,20.60
2017-08-02T23:18:26.601Z,20.60
2017-08-02T23:20:54.345Z,20.60
2017-08-02T23:23:21.821Z,20.60
2017-08-02T23:25:49.298Z,20.50
2017-08-02T23:28:16.797Z,20.50
2017-08-02T23:30:44.278Z,20.50
2017-08-02T23:33:11.754Z,20.40
2017-08-02T23:35:39.261Z,20.40
2017-08-02T23:38:06.841Z,20.40
2017-08-02T23:40:34.321Z,20.40
2017-08-02T23:43:01.830Z,20.40
2017-08-02T23:45:29.307Z,20.30
2017-08-02T23:47:56.794Z,20.40
2017-08-02T23:50:24.290Z,20.40
2017-08-02T23:52:52.530Z,20.40
2017-08-02T23:55:20.020Z,20.40
2017-08-02T23:57:48.293Z,20.30
